sensor_id;sensor_type;location;lat;lon;timestamp;pressure;altitude;pressure_sealevel;temperature;humidity
55347;BME280;41218;55.700;38.270;2023-03-26T00:02:36;98490.75;;;4.56;75.39
55347;BME280;41218;55.700;38.270;2023-03-26T00:07:39;98494.63;;;4.55;74.89
55347;BME280;41218;55.700;38.270;2023-03-26T00:12:40;98502.34;;;4.50;75.21
55347;BME280;41218;55.700;38.270;2023-03-26T00:17:40;98498.88;;;4.53;75.10
55347;BME280;41218;55.700;38.270;2023-03-26T00:22:41;98487.94;;;4.53;74.80
55347;BME280;41218;55.700;38.270;2023-03-26T00:27:42;98482.03;;;4.51;75.16
55347;BME280;41218;55.700;38.270;2023-03-26T00:32:45;98486.66;;;4.47;74.86
55347;BME280;41218;55.700;38.270;2023-03-26T00:37:45;98509.69;;;4.46;75.32
55347;BME280;41218;55.700;38.270;2023-03-26T00:42:46;98511.72;;;4.49;75.22
55347;BME280;41218;55.700;38.270;2023-03-26T00:47:46;98519.13;;;4.48;74.94
55347;BME280;41218;55.700;38.270;2023-03-26T00:52:47;98514.72;;;4.44;74.65
55347;BME280;41218;55.700;38.270;2023-03-26T00:57:47;98505.28;;;4.41;74.82
55347;BME280;41218;55.700;38.270;2023-03-26T01:02:48;98510.84;;;4.45;75.03
55347;BME280;41218;55.700;38.270;2023-03-26T01:07:48;98494.00;;;4.43;74.92
55347;BME280;41218;55.700;38.270;2023-03-26T01:12:49;98488.09;;;4.40;75.13
55347;BME280;41218;55.700;38.270;2023-03-26T01:17:50;98480.66;;;4.41;74.68
55347;BME280;41218;55.700;38.270;2023-03-26T01:22:56;98467.34;;;4.39;74.62
55347;BME280;41218;55.700;38.270;2023-03-26T01:28:00;98459.44;;;4.34;74.73
55347;BME280;41218;55.700;38.270;2023-03-26T01:33:22;98458.28;;;4.35;74.67
55347;BME280;41218;55.700;38.270;2023-03-26T01:38:31;98456.28;;;4.32;74.72
55347;BME280;41218;55.700;38.270;2023-03-26T01:44:39;98459.72;;;4.29;74.69
55347;BME280;41218;55.700;38.270;2023-03-26T01:49:08;98458.50;;;4.27;74.67
55347;BME280;41218;55.700;38.270;2023-03-26T01:54:16;98451.00;;;4.24;74.58
55347;BME280;41218;55.700;38.270;2023-03-26T02:04:56;98458.75;;;4.21;74.85
55347;BME280;41218;55.700;38.270;2023-03-26T02:10:02;98457.53;;;4.19;74.70
55347;BME280;41218;55.700;38.270;2023-03-26T02:15:06;98450.84;;;4.16;74.59
55347;BME280;41218;55.700;38.270;2023-03-26T02:20:08;98428.13;;;4.12;74.47
55347;BME280;41218;55.700;38.270;2023-03-26T02:25:15;98434.38;;;4.13;74.66
55347;BME280;41218;55.700;38.270;2023-03-26T02:30:22;98428.81;;;4.09;74.57
55347;BME280;41218;55.700;38.270;2023-03-26T02:35:26;98427.59;;;4.07;74.54
55347;BME280;41218;55.700;38.270;2023-03-26T02:40:26;98434.16;;;4.02;74.78
55347;BME280;41218;55.700;38.270;2023-03-26T02:45:26;98427.53;;;4.03;74.54
55347;BME280;41218;55.700;38.270;2023-03-26T02:50:27;98432.19;;;4.03;74.64
55347;BME280;41218;55.700;38.270;2023-03-26T02:55:31;98416.16;;;4.01;74.16
55347;BME280;41218;55.700;38.270;2023-03-26T03:00:33;98406.28;;;3.96;74.32
55347;BME280;41218;55.700;38.270;2023-03-26T03:05:34;98405.06;;;3.94;74.30
55347;BME280;41218;55.700;38.270;2023-03-26T03:10:37;98394.84;;;3.91;74.56
55347;BME280;41218;55.700;38.270;2023-03-26T03:15:38;98400.75;;;3.93;74.45
55347;BME280;41218;55.700;38.270;2023-03-26T03:20:39;98390.47;;;3.86;74.41
55347;BME280;41218;55.700;38.270;2023-03-26T03:25:39;98388.44;;;3.83;74.26
55347;BME280;41218;55.700;38.270;2023-03-26T03:30:40;98376.72;;;3.83;74.58
55347;BME280;41218;55.700;38.270;2023-03-26T03:35:40;98384.03;;;3.78;74.33
55347;BME280;41218;55.700;38.270;2023-03-26T03:40:42;98398.56;;;3.83;74.41
55347;BME280;41218;55.700;38.270;2023-03-26T03:45:42;98397.44;;;3.84;74.41
55347;BME280;41218;55.700;38.270;2023-03-26T03:50:43;98392.41;;;3.86;74.37
55347;BME280;41218;55.700;38.270;2023-03-26T03:55:44;98379.44;;;3.83;74.49
55347;BME280;41218;55.700;38.270;2023-03-26T04:00:52;98374.84;;;3.87;74.75
55347;BME280;41218;55.700;38.270;2023-03-26T04:05:53;98370.97;;;3.88;74.72
55347;BME280;41218;55.700;38.270;2023-03-26T04:10:54;98369.03;;;3.88;74.16
55347;BME280;41218;55.700;38.270;2023-03-26T04:15:55;98372.53;;;3.89;74.46
55347;BME280;41218;55.700;38.270;2023-03-26T04:20:55;98362.34;;;3.86;74.39
55347;BME280;41218;55.700;38.270;2023-03-26T04:26:00;98364.34;;;3.89;74.28
55347;BME280;41218;55.700;38.270;2023-03-26T04:31:03;98351.47;;;3.89;74.37
55347;BME280;41218;55.700;38.270;2023-03-26T04:36:05;98335.78;;;3.86;74.50
55347;BME280;41218;55.700;38.270;2023-03-26T04:41:06;98330.41;;;3.90;74.38
55347;BME280;41218;55.700;38.270;2023-03-26T04:46:08;98315.56;;;3.91;74.51
55347;BME280;41218;55.700;38.270;2023-03-26T04:51:12;98321.97;;;3.98;74.64
55347;BME280;41218;55.700;38.270;2023-03-26T04:56:38;98321.28;;;4.01;74.55
55347;BME280;41218;55.700;38.270;2023-03-26T05:01:42;98320.84;;;3.99;74.31
55347;BME280;41218;55.700;38.270;2023-03-26T05:06:45;98311.91;;;4.03;74.48
55347;BME280;41218;55.700;38.270;2023-03-26T05:11:45;98303.69;;;4.03;74.51
55347;BME280;41218;55.700;38.270;2023-03-26T05:16:47;98312.75;;;4.07;74.76
55347;BME280;41218;55.700;38.270;2023-03-26T05:21:49;98296.06;;;4.12;74.81
55347;BME280;41218;55.700;38.270;2023-03-26T05:26:50;98294.72;;;4.25;75.10
55347;BME280;41218;55.700;38.270;2023-03-26T05:31:51;98293.00;;;4.36;75.85
55347;BME280;41218;55.700;38.270;2023-03-26T05:36:51;98276.81;;;4.51;76.06
55347;BME280;41218;55.700;38.270;2023-03-26T05:41:52;98281.31;;;4.63;76.18
55347;BME280;41218;55.700;38.270;2023-03-26T05:46:52;98272.09;;;4.74;75.95
55347;BME280;41218;55.700;38.270;2023-03-26T05:51:53;98281.72;;;4.88;76.49
55347;BME280;41218;55.700;38.270;2023-03-26T05:56:54;98283.47;;;4.99;76.82
55347;BME280;41218;55.700;38.270;2023-03-26T06:01:56;98289.84;;;5.07;76.61
55347;BME280;41218;55.700;38.270;2023-03-26T06:06:57;98274.25;;;5.11;76.77
55347;BME280;41218;55.700;38.270;2023-03-26T06:11:57;98276.22;;;5.14;76.76
55347;BME280;41218;55.700;38.270;2023-03-26T06:16:58;98262.47;;;5.11;76.74
55347;BME280;41218;55.700;38.270;2023-03-26T06:21:58;98255.78;;;5.08;76.60
55347;BME280;41218;55.700;38.270;2023-03-26T06:26:59;98253.91;;;5.12;76.72
55347;BME280;41218;55.700;38.270;2023-03-26T06:31:59;98257.16;;;5.21;77.12
55347;BME280;41218;55.700;38.270;2023-03-26T06:37:00;98249.41;;;5.27;77.25
55347;BME280;41218;55.700;38.270;2023-03-26T06:42:01;98249.88;;;5.33;77.14
55347;BME280;41218;55.700;38.270;2023-03-26T06:47:01;98244.44;;;5.36;77.02
55347;BME280;41218;55.700;38.270;2023-03-26T06:52:01;98237.41;;;5.35;76.96
55347;BME280;41218;55.700;38.270;2023-03-26T06:57:03;98241.75;;;5.40;77.49
55347;BME280;41218;55.700;38.270;2023-03-26T07:02:03;98227.69;;;5.41;77.16
55347;BME280;41218;55.700;38.270;2023-03-26T07:07:04;98227.69;;;5.41;77.04
55347;BME280;41218;55.700;38.270;2023-03-26T07:12:05;98221.13;;;5.50;77.40
55347;BME280;41218;55.700;38.270;2023-03-26T07:17:05;98207.03;;;5.51;77.70
55347;BME280;41218;55.700;38.270;2023-03-26T07:22:06;98216.91;;;5.59;77.90
55347;BME280;41218;55.700;38.270;2023-03-26T07:48:18;98189.47;;;5.93;77.76
55347;BME280;41218;55.700;38.270;2023-03-26T07:53:20;98187.59;;;5.97;77.96
55347;BME280;41218;55.700;38.270;2023-03-26T07:58:27;98166.84;;;6.00;78.22
55347;BME280;41218;55.700;38.270;2023-03-26T08:14:15;98143.81;;;6.12;78.74
55347;BME280;41218;55.700;38.270;2023-03-26T08:25:00;98157.25;;;6.20;78.91
55347;BME280;41218;55.700;38.270;2023-03-26T08:30:27;98163.50;;;6.21;78.27
55347;BME280;41218;55.700;38.270;2023-03-26T08:35:27;98162.31;;;6.22;78.25
55347;BME280;41218;55.700;38.270;2023-03-26T08:52:05;98119.25;;;6.22;78.54
55347;BME280;41218;55.700;38.270;2023-03-26T09:02:43;98106.66;;;6.21;78.49
55347;BME280;41218;55.700;38.270;2023-03-26T09:19:13;98115.78;;;6.33;79.06
55347;BME280;41218;55.700;38.270;2023-03-26T09:51:07;98093.47;;;6.41;78.99
55347;BME280;41218;55.700;38.270;2023-03-26T10:13:04;98063.03;;;6.61;79.93
55347;BME280;41218;55.700;38.270;2023-03-26T10:18:27;98072.81;;;6.62;80.02
55347;BME280;41218;55.700;38.270;2023-03-26T10:50:02;98059.91;;;6.70;79.97
55347;BME280;41218;55.700;38.270;2023-03-26T10:55:21;98057.19;;;6.73;79.89
55347;BME280;41218;55.700;38.270;2023-03-26T11:00:26;98051.69;;;6.70;79.24
55347;BME280;41218;55.700;38.270;2023-03-26T11:11:04;98047.38;;;6.76;80.11
55347;BME280;41218;55.700;38.270;2023-03-26T11:26:59;98041.91;;;6.76;79.98
55347;BME280;41218;55.700;38.270;2023-03-26T11:32:16;98045.44;;;6.80;79.68
55347;BME280;41218;55.700;38.270;2023-03-26T11:37:38;98042.31;;;6.81;79.83
55347;BME280;41218;55.700;38.270;2023-03-26T11:42:41;98032.13;;;6.82;79.36
55347;BME280;41218;55.700;38.270;2023-03-26T11:47:56;98033.69;;;6.87;79.88
55347;BME280;41218;55.700;38.270;2023-03-26T11:53:10;98025.06;;;6.88;79.80
55347;BME280;41218;55.700;38.270;2023-03-26T12:03:24;98026.25;;;6.91;79.29
55347;BME280;41218;55.700;38.270;2023-03-26T12:08:33;98027.06;;;6.95;79.45
55347;BME280;41218;55.700;38.270;2023-03-26T12:18:39;98017.63;;;6.92;79.19
55347;BME280;41218;55.700;38.270;2023-03-26T12:24:02;98022.75;;;6.94;79.90
55347;BME280;41218;55.700;38.270;2023-03-26T12:29:13;98021.94;;;6.97;79.36
55347;BME280;41218;55.700;38.270;2023-03-26T12:34:17;98012.56;;;6.98;79.28
55347;BME280;41218;55.700;38.270;2023-03-26T12:39:38;98018.81;;;6.98;80.02
55347;BME280;41218;55.700;38.270;2023-03-26T12:44:44;97997.63;;;6.95;79.64
55347;BME280;41218;55.700;38.270;2023-03-26T12:49:47;97995.69;;;6.96;79.71
55347;BME280;41218;55.700;38.270;2023-03-26T12:54:57;97988.59;;;6.98;79.98
55347;BME280;41218;55.700;38.270;2023-03-26T13:05:43;97989.78;;;7.01;80.18
55347;BME280;41218;55.700;38.270;2023-03-26T13:26:53;97985.84;;;6.91;79.97
55347;BME280;41218;55.700;38.270;2023-03-26T13:32:14;97985.88;;;6.98;79.68
55347;BME280;41218;55.700;38.270;2023-03-26T13:37:25;97986.25;;;6.97;79.64
55347;BME280;41218;55.700;38.270;2023-03-26T13:47:41;97978.41;;;6.92;79.63
55347;BME280;41218;55.700;38.270;2023-03-26T13:52:48;97992.91;;;6.92;79.59
55347;BME280;41218;55.700;38.270;2023-03-26T14:03:19;97983.50;;;6.90;79.76
55347;BME280;41218;55.700;38.270;2023-03-26T14:08:37;97978.00;;;6.90;79.73
55347;BME280;41218;55.700;38.270;2023-03-26T14:13:54;97972.88;;;6.88;79.99
55347;BME280;41218;55.700;38.270;2023-03-26T14:29:33;97973.25;;;6.83;80.01
55347;BME280;41218;55.700;38.270;2023-03-26T14:51:41;97973.66;;;6.78;79.94
55347;BME280;41218;55.700;38.270;2023-03-26T15:39:45;97960.25;;;6.62;80.10
55347;BME280;41218;55.700;38.270;2023-03-26T15:50:33;97958.31;;;6.59;79.81
55347;BME280;41218;55.700;38.270;2023-03-26T15:55:42;97959.06;;;6.56;79.92
55347;BME280;41218;55.700;38.270;2023-03-26T16:01:02;97953.13;;;6.47;79.72
55347;BME280;41218;55.700;38.270;2023-03-26T16:06:23;97953.53;;;6.49;79.96
55347;BME280;41218;55.700;38.270;2023-03-26T16:16:57;97963.34;;;6.46;79.90
55347;BME280;41218;55.700;38.270;2023-03-26T16:22:04;97957.41;;;6.40;80.01
55347;BME280;41218;55.700;38.270;2023-03-26T16:27:27;97950.34;;;6.32;79.95
55347;BME280;41218;55.700;38.270;2023-03-26T16:32:33;97951.53;;;6.31;79.86
55347;BME280;41218;55.700;38.270;2023-03-26T16:42:40;97941.28;;;6.28;79.60
55347;BME280;41218;55.700;38.270;2023-03-26T16:48:00;97942.47;;;6.27;80.25
55347;BME280;41218;55.700;38.270;2023-03-26T16:53:40;97967.66;;;6.47;80.19
55347;BME280;41218;55.700;38.270;2023-03-26T17:04:01;97933.06;;;6.25;79.71
55347;BME280;41218;55.700;38.270;2023-03-26T17:09:12;97928.38;;;6.25;79.93
55347;BME280;41218;55.700;38.270;2023-03-26T17:19:37;97961.72;;;6.38;79.85
55347;BME280;41218;55.700;38.270;2023-03-26T17:25:12;97970.75;;;6.42;80.04
55347;BME280;41218;55.700;38.270;2023-03-26T17:35:49;97972.31;;;6.39;79.59
55347;BME280;41218;55.700;38.270;2023-03-26T17:40:55;97955.41;;;6.30;79.89
55347;BME280;41218;55.700;38.270;2023-03-26T17:45:58;97920.84;;;6.11;80.26
55347;BME280;41218;55.700;38.270;2023-03-26T17:56:28;97940.91;;;6.26;79.81
55347;BME280;41218;55.700;38.270;2023-03-26T18:01:42;97915.78;;;6.13;80.04
55347;BME280;41218;55.700;38.270;2023-03-26T18:12:21;97955.88;;;6.39;80.20
55347;BME280;41218;55.700;38.270;2023-03-26T18:17:30;97915.34;;;6.08;79.67
55347;BME280;41218;55.700;38.270;2023-03-26T18:22:38;97921.25;;;6.13;79.57
55347;BME280;41218;55.700;38.270;2023-03-26T18:27:39;97914.19;;;6.12;79.82
55347;BME280;41218;55.700;38.270;2023-03-26T18:33:01;97908.28;;;6.10;79.85
55347;BME280;41218;55.700;38.270;2023-03-26T18:38:02;97922.41;;;6.12;79.82
55347;BME280;41218;55.700;38.270;2023-03-26T18:43:03;97914.63;;;6.14;79.66
55347;BME280;41218;55.700;38.270;2023-03-26T18:48:08;97929.53;;;6.20;79.77
55347;BME280;41218;55.700;38.270;2023-03-26T18:53:23;97902.78;;;5.99;80.02
55347;BME280;41218;55.700;38.270;2023-03-26T18:58:28;97942.50;;;6.31;79.58
55347;BME280;41218;55.700;38.270;2023-03-26T19:03:33;97916.94;;;6.09;79.93
55347;BME280;41218;55.700;38.270;2023-03-26T19:08:36;97928.31;;;6.18;79.80
55347;BME280;41218;55.700;38.270;2023-03-26T19:13:38;97923.63;;;6.22;79.89
55347;BME280;41218;55.700;38.270;2023-03-26T19:18:42;97900.47;;;6.12;79.75
55347;BME280;41218;55.700;38.270;2023-03-26T19:23:43;97901.63;;;6.08;80.09
55347;BME280;41218;55.700;38.270;2023-03-26T19:28:47;97918.94;;;6.19;79.77
55347;BME280;41218;55.700;38.270;2023-03-26T19:33:59;97906.38;;;6.14;79.90
55347;BME280;41218;55.700;38.270;2023-03-26T19:44:19;97879.28;;;5.98;79.94
55347;BME280;41218;55.700;38.270;2023-03-26T19:49:27;97894.19;;;6.05;80.04
55347;BME280;41218;55.700;38.270;2023-03-26T19:54:28;97898.13;;;6.11;79.53
55347;BME280;41218;55.700;38.270;2023-03-26T19:59:29;97876.53;;;6.06;79.49
55347;BME280;41218;55.700;38.270;2023-03-26T20:04:30;97867.91;;;5.96;79.47
55347;BME280;41218;55.700;38.270;2023-03-26T20:09:32;97874.16;;;5.97;79.66
55347;BME280;41218;55.700;38.270;2023-03-26T20:14:32;97888.28;;;6.03;79.62
55347;BME280;41218;55.700;38.270;2023-03-26T20:19:33;97874.50;;;5.92;79.47
55347;BME280;41218;55.700;38.270;2023-03-26T20:24:34;97887.50;;;6.06;79.61
55347;BME280;41218;55.700;38.270;2023-03-26T20:29:35;97880.44;;;5.97;79.66
55347;BME280;41218;55.700;38.270;2023-03-26T20:34:36;97889.09;;;6.10;79.58
55347;BME280;41218;55.700;38.270;2023-03-26T20:39:37;97869.06;;;5.95;79.79
55347;BME280;41218;55.700;38.270;2023-03-26T20:44:39;97860.78;;;5.88;79.76
55347;BME280;41218;55.700;38.270;2023-03-26T20:49:39;97878.88;;;6.00;79.75
55347;BME280;41218;55.700;38.270;2023-03-26T20:54:41;97874.97;;;6.01;79.74
55347;BME280;41218;55.700;38.270;2023-03-26T20:59:41;97864.31;;;5.92;79.72
55347;BME280;41218;55.700;38.270;2023-03-26T21:04:42;97880.03;;;5.95;79.46
55347;BME280;41218;55.700;38.270;2023-03-26T21:09:43;97863.91;;;5.87;79.50
55347;BME280;41218;55.700;38.270;2023-03-26T21:14:44;97883.97;;;6.01;79.56
55347;BME280;41218;55.700;38.270;2023-03-26T21:19:45;97912.28;;;6.16;79.79
55347;BME280;41218;55.700;38.270;2023-03-26T21:29:59;97863.47;;;5.81;79.26
55347;BME280;41218;55.700;38.270;2023-03-26T21:35:00;97881.53;;;5.89;79.20
55347;BME280;41218;55.700;38.270;2023-03-26T21:40:02;97872.13;;;5.87;79.34
55347;BME280;41218;55.700;38.270;2023-03-26T21:45:14;97893.69;;;5.92;79.61
55347;BME280;41218;55.700;38.270;2023-03-26T21:50:16;97909.88;;;6.11;79.69
55347;BME280;41218;55.700;38.270;2023-03-26T21:55:21;97881.91;;;5.88;79.69
55347;BME280;41218;55.700;38.270;2023-03-26T22:00:23;97874.78;;;5.72;79.49
55347;BME280;41218;55.700;38.270;2023-03-26T22:05:47;97898.00;;;5.93;79.64
55347;BME280;41218;55.700;38.270;2023-03-26T22:10:49;97914.53;;;5.96;79.74
55347;BME280;41218;55.700;38.270;2023-03-26T22:15:50;97896.03;;;5.90;79.62
55347;BME280;41218;55.700;38.270;2023-03-26T22:20:51;97900.72;;;5.89;79.58
55347;BME280;41218;55.700;38.270;2023-03-26T22:25:52;97897.97;;;5.86;79.34
55347;BME280;41218;55.700;38.270;2023-03-26T22:30:52;97898.75;;;5.82;79.41
55347;BME280;41218;55.700;38.270;2023-03-26T22:35:54;97933.72;;;6.00;79.29
55347;BME280;41218;55.700;38.270;2023-03-26T22:40:55;97918.38;;;5.88;79.37
55347;BME280;41218;55.700;38.270;2023-03-26T22:45:56;97915.94;;;5.79;79.38
55347;BME280;41218;55.700;38.270;2023-03-26T22:51:00;97920.31;;;5.84;79.33
55347;BME280;41218;55.700;38.270;2023-03-26T22:56:00;97916.31;;;5.74;79.28
55347;BME280;41218;55.700;38.270;2023-03-26T23:01:14;97909.59;;;5.65;79.51
55347;BME280;41218;55.700;38.270;2023-03-26T23:06:16;97915.09;;;5.68;79.00
55347;BME280;41218;55.700;38.270;2023-03-26T23:11:19;97909.19;;;5.62;79.32
55347;BME280;41218;55.700;38.270;2023-03-26T23:16:21;97918.56;;;5.61;78.93
55347;BME280;41218;55.700;38.270;2023-03-26T23:21:21;97909.13;;;5.55;79.50
55347;BME280;41218;55.700;38.270;2023-03-26T23:26:22;97915.78;;;5.54;79.02
55347;BME280;41218;55.700;38.270;2023-03-26T23:31:23;97905.53;;;5.44;79.17
55347;BME280;41218;55.700;38.270;2023-03-26T23:36:24;97919.28;;;5.48;79.02
55347;BME280;41218;55.700;38.270;2023-03-26T23:41:25;97926.34;;;5.52;78.66
55347;BME280;41218;55.700;38.270;2023-03-26T23:46:27;97913.69;;;5.37;78.78
55347;BME280;41218;55.700;38.270;2023-03-26T23:51:30;97912.88;;;5.33;78.54
55347;BME280;41218;55.700;38.270;2023-03-26T23:56:30;97931.72;;;5.38;78.55
